createdAt,value
2019-03-02T00:00:37.803Z,23.90
2019-03-02T00:03:07.424Z,22.30
2019-03-02T00:05:37.438Z,22.53
2019-03-02T00:11:58.404Z,22.13
2019-03-02T00:31:48.692Z,23.50
2019-03-02T00:34:18.593Z,23.70
2019-03-02T00:36:51.083Z,22.90
2019-03-02T00:39:20.144Z,23.70
2019-03-02T00:53:12.107Z,25.93
2019-03-02T00:55:42.099Z,25.20
2019-03-02T00:58:13.021Z,23.50
2019-03-02T01:00:43.989Z,25.67
2019-03-02T01:16:29.390Z,25.07
2019-03-02T01:26:20.649Z,22.47
2019-03-02T01:35:50.497Z,25.13
2019-03-02T01:53:00.217Z,22.37
2019-03-02T01:55:31.174Z,23.37
2019-03-02T02:51:16.193Z,20.77
2019-03-02T03:41:56.485Z,19.97
2019-03-02T03:44:27.759Z,19.23
2019-03-02T03:47:00.804Z,19.73
2019-03-02T03:53:14.014Z,20.87
2019-03-02T04:10:26.081Z,18.37
2019-03-02T04:12:52.907Z,20.33
2019-03-02T04:19:20.673Z,19.17
2019-03-02T04:28:51.988Z,17.87
2019-03-02T04:31:22.004Z,20.30
2019-03-02T04:33:51.947Z,20.00
2019-03-02T04:36:21.945Z,17.43
2019-03-02T04:52:38.558Z,20.37
2019-03-02T05:12:15.827Z,20.73
2019-03-02T05:14:45.763Z,21.50
2019-03-02T05:17:16.450Z,19.87
2019-03-02T05:23:31.521Z,20.90
2019-03-02T05:52:37.217Z,21.17
2019-03-02T06:02:20.279Z,22.27
2019-03-02T06:45:13.933Z,26.63
2019-03-02T06:55:03.197Z,22.90
2019-03-02T07:04:55.115Z,26.47
2019-03-02T07:14:43.122Z,21.30
2019-03-02T07:24:39.661Z,21.67
2019-03-02T07:52:02.358Z,18.43
2019-03-02T07:54:32.362Z,20.37
2019-03-02T08:11:20.973Z,17.50
2019-03-02T08:13:51.648Z,18.30
2019-03-02T08:16:21.596Z,17.43
2019-03-02T08:22:30.433Z,19.73
2019-03-02T08:32:17.695Z,14.80
2019-03-02T08:50:49.791Z,16.33
2019-03-02T08:53:19.505Z,16.13
2019-03-02T08:55:49.432Z,15.90
2019-03-02T09:02:11.008Z,14.27
2019-03-02T09:05:17.895Z,14.67
2019-03-02T09:15:30.057Z,14.73
2019-03-02T09:17:59.011Z,13.90
2019-03-02T09:20:32.469Z,15.30
2019-03-02T09:23:01.837Z,13.83
2019-03-02T09:48:56.890Z,11.83
2019-03-02T10:02:34.889Z,11.20
2019-03-02T10:05:05.393Z,11.43
2019-03-02T10:07:38.006Z,10.40
2019-03-02T10:10:08.830Z,11.83
2019-03-02T10:12:38.819Z,12.20
2019-03-02T10:15:12.804Z,12.03
2019-03-02T10:17:43.144Z,13.27
2019-03-02T10:20:13.682Z,13.40
2019-03-02T10:57:59.228Z,14.67
2019-03-02T11:00:31.103Z,15.40
2019-03-02T11:03:00.262Z,14.47
2019-03-02T11:05:47.900Z,14.80
2019-03-02T11:08:36.942Z,12.80
2019-03-02T11:11:18.359Z,15.20
2019-03-02T11:14:05.719Z,13.90
2019-03-02T11:17:01.588Z,13.80
2019-03-02T11:19:47.407Z,14.20
2019-03-02T11:22:22.905Z,15.43
2019-03-02T11:31:19.573Z,14.97
2019-03-02T11:34:07.116Z,15.23
2019-03-02T11:37:01.804Z,13.83
2019-03-02T11:53:38.692Z,13.77
2019-03-02T11:56:25.070Z,14.30
2019-03-02T11:59:10.819Z,14.20
2019-03-02T12:02:01.040Z,14.23
2019-03-02T12:04:52.189Z,14.07
2019-03-02T12:07:34.549Z,13.90
2019-03-02T12:10:13.956Z,12.87
2019-03-02T12:16:34.236Z,13.77
2019-03-02T12:19:26.258Z,13.23
2019-03-02T13:18:22.537Z,15.00
2019-03-02T13:21:16.461Z,16.17
2019-03-02T13:24:05.412Z,14.20
2019-03-02T13:41:14.417Z,13.30
2019-03-02T13:44:05.973Z,11.03
2019-03-02T13:46:42.969Z,7.13
2019-03-02T13:49:46.817Z,6.70
2019-03-02T13:52:47.438Z,5.87
2019-03-02T13:55:24.538Z,7.00
2019-03-02T13:58:06.579Z,6.70
2019-03-02T14:00:50.503Z,7.70
2019-03-02T14:03:26.834Z,6.80
2019-03-02T14:06:14.264Z,7.20
2019-03-02T14:08:54.144Z,6.70
2019-03-02T14:11:49.093Z,7.17
2019-03-02T15:30:23.097Z,8.63
2019-03-02T15:33:00.133Z,8.17
2019-03-02T15:35:49.131Z,5.77
2019-03-02T15:38:36.333Z,8.97
2019-03-02T15:41:20.382Z,8.50
2019-03-02T15:44:24.551Z,7.80
2019-03-02T15:50:37.761Z,7.90
2019-03-02T15:53:16.218Z,10.13
2019-03-02T15:56:03.394Z,8.57
2019-03-02T15:58:49.162Z,7.70
2019-03-02T16:01:44.148Z,8.60
2019-03-02T16:08:26.897Z,7.57
2019-03-02T16:18:06.295Z,9.73
2019-03-02T16:56:21.101Z,7.00
2019-03-02T16:59:04.526Z,6.97
2019-03-02T17:01:48.787Z,8.40
2019-03-02T17:04:36.660Z,6.00
2019-03-02T17:07:37.802Z,7.17
2019-03-02T17:10:28.295Z,7.40
2019-03-02T17:13:11.449Z,6.10
2019-03-02T17:16:06.140Z,6.00
2019-03-02T17:18:43.285Z,6.47
2019-03-02T17:21:37.271Z,6.37
2019-03-02T17:24:12.559Z,6.50
2019-03-02T17:26:54.126Z,7.00
2019-03-02T17:29:31.795Z,6.90
2019-03-02T17:32:22.938Z,5.90
2019-03-02T17:35:20.601Z,5.33
2019-03-02T17:38:02.109Z,6.60
2019-03-02T17:40:42.331Z,6.90
2019-03-02T17:43:23.640Z,6.07
2019-03-02T17:46:14.182Z,6.27
2019-03-02T17:49:09.626Z,7.87
2019-03-02T17:52:04.316Z,6.60
2019-03-02T17:54:56.071Z,5.47
2019-03-02T17:57:59.977Z,6.40
2019-03-02T18:00:56.968Z,6.57
2019-03-02T18:03:35.945Z,7.47
2019-03-02T18:06:24.933Z,6.07
2019-03-02T18:09:13.973Z,6.10
2019-03-02T18:12:05.619Z,5.90
2019-03-02T18:14:40.931Z,7.13
2019-03-02T18:17:20.590Z,7.47
2019-03-02T18:19:50.765Z,5.90
2019-03-02T18:22:20.842Z,6.47
2019-03-02T18:24:50.782Z,6.23
2019-03-02T18:27:20.813Z,6.60
2019-03-02T18:29:50.872Z,8.40
2019-03-02T18:32:21.146Z,5.60
2019-03-02T18:34:51.112Z,7.07
2019-03-02T18:37:21.019Z,6.60
2019-03-02T18:39:51.183Z,7.27
2019-03-02T18:42:21.253Z,5.87
2019-03-02T18:44:54.638Z,7.10
2019-03-02T18:47:25.941Z,5.90
2019-03-02T18:50:02.814Z,6.17
2019-03-02T18:52:53.796Z,5.80
2019-03-02T18:55:22.398Z,5.80
2019-03-02T18:57:53.853Z,4.73
2019-03-02T19:00:27.060Z,6.07
2019-03-02T19:02:56.973Z,5.03
2019-03-02T19:05:29.093Z,5.20
2019-03-02T19:08:01.236Z,4.53
2019-03-02T19:10:31.629Z,4.20
2019-03-02T19:13:05.053Z,3.73
2019-03-02T19:15:33.648Z,3.60
2019-03-02T19:18:03.740Z,4.50
2019-03-02T19:20:33.755Z,5.70
2019-03-02T19:23:03.667Z,3.90
2019-03-02T19:25:33.648Z,3.90
2019-03-02T19:28:03.562Z,4.30
2019-03-02T20:03:36.053Z,4.13
2019-03-02T20:06:06.268Z,4.93
2019-03-02T20:23:37.579Z,4.73
2019-03-02T20:26:07.632Z,4.60
2019-03-02T20:28:37.595Z,4.00
2019-03-02T20:31:08.321Z,3.77
2019-03-02T20:33:38.242Z,4.70
2019-03-02T20:36:08.316Z,4.10
2019-03-02T20:42:23.399Z,4.40
2019-03-02T20:44:53.411Z,5.43
2019-03-02T20:54:43.722Z,4.17
2019-03-02T20:57:13.758Z,5.50
2019-03-02T20:59:43.665Z,4.50
2019-03-02T21:02:13.611Z,4.10
2019-03-02T21:04:43.527Z,3.63
2019-03-02T21:07:13.447Z,4.53
2019-03-02T21:09:43.361Z,4.07
2019-03-02T21:12:13.715Z,5.03
2019-03-02T21:14:43.676Z,4.90
2019-03-02T21:17:13.591Z,3.50
2019-03-02T21:19:43.663Z,3.50
2019-03-02T21:22:13.594Z,4.20
2019-03-02T21:28:28.389Z,3.93
2019-03-02T21:38:36.608Z,4.00
2019-03-02T21:58:07.823Z,3.60
2019-03-02T22:00:37.813Z,3.10
2019-03-02T22:03:07.839Z,3.37
2019-03-02T22:05:38.215Z,2.43
2019-03-02T22:08:08.485Z,2.87
2019-03-02T22:10:43.919Z,2.20
2019-03-02T22:13:13.930Z,2.47
2019-03-02T22:15:43.823Z,3.20
2019-03-02T22:18:13.773Z,2.20
2019-03-02T22:20:43.791Z,2.23
2019-03-02T22:23:13.722Z,2.83
2019-03-02T22:25:43.650Z,2.33
2019-03-02T22:28:13.582Z,2.67
2019-03-02T22:30:43.494Z,2.40
2019-03-02T22:33:13.509Z,2.53
2019-03-02T22:35:43.434Z,2.43
2019-03-02T22:38:13.363Z,2.53
2019-03-02T22:40:43.314Z,2.10
2019-03-02T22:43:13.321Z,2.20
2019-03-02T22:45:43.254Z,2.23
2019-03-02T22:48:13.393Z,2.30
2019-03-02T22:50:43.345Z,2.83
2019-03-02T22:53:13.263Z,2.77
2019-03-02T22:55:43.174Z,1.90
2019-03-02T22:58:13.114Z,3.77
2019-03-02T23:01:29.787Z,2.53
2019-03-02T23:03:59.740Z,2.70
2019-03-02T23:06:29.646Z,2.50
2019-03-02T23:08:59.637Z,2.13
2019-03-02T23:11:29.621Z,2.33
2019-03-02T23:13:59.547Z,2.40
2019-03-02T23:16:29.540Z,2.90
2019-03-02T23:18:59.456Z,2.67
2019-03-02T23:21:29.367Z,2.03
2019-03-02T23:23:59.276Z,2.43
2019-03-02T23:26:29.184Z,2.50
2019-03-02T23:28:59.101Z,2.23
2019-03-02T23:31:29.076Z,2.00
2019-03-02T23:33:58.992Z,2.80
2019-03-02T23:36:28.898Z,1.93
2019-03-02T23:38:58.835Z,3.47
2019-03-02T23:41:28.827Z,2.23
2019-03-02T23:43:58.999Z,2.07
2019-03-02T23:46:29.017Z,2.70
2019-03-02T23:48:58.935Z,2.50
2019-03-02T23:51:28.912Z,2.30
2019-03-02T23:53:58.921Z,2.70
2019-03-02T23:56:28.906Z,2.17
2019-03-02T23:58:58.833Z,2.50
